Las Vegas, Nevada
Traffic Map
Current Weather Conditions
Las Vegas, Nevada
Broken Clouds
Broken Clouds
12°
Feels Like: 12°
Wind Chill: 12° Ceiling: 8000
Heat Index: 12° Visibility: 10mi
Dew Point: Wind: 7mph
Humidity: 75% Direction: 160° (SSE)
Pressure: 29.7in Gusts: 0mph
Raw Report DataKLAS 260256Z 16006KT 10SM FEW030 BKN080 12/08 A2970 RMK AO2 RAE24 SLP048 P0001 60026 T01220078 50023 $
Traffic Incident Summary
Active as of:
Severity:
Category:
InformationThere was an issue retrieving the traffic information for this location. Please try a different location or try again shortly.
Advertisements
Track Severe Weather on mobile